createdAt,value
2023-11-23T00:00:35.733Z,2.97
2023-11-23T00:03:05.166Z,3.04
2023-11-23T00:05:33.254Z,3.13
2023-11-23T00:08:01.558Z,3.03
2023-11-23T00:10:29.804Z,3.06
2023-11-23T00:12:57.969Z,2.96
2023-11-23T00:15:25.881Z,2.95
2023-11-23T00:17:54.450Z,2.92
2023-11-23T00:20:24.039Z,2.99
2023-11-23T00:22:52.470Z,2.97
2023-11-23T00:25:20.545Z,2.95
2023-11-23T00:27:48.627Z,3.03
2023-11-23T00:30:16.753Z,2.88
2023-11-23T00:32:44.868Z,2.80
2023-11-23T00:35:12.959Z,2.82
2023-11-23T00:37:42.332Z,2.74
2023-11-23T00:40:11.254Z,2.61
2023-11-23T00:42:39.440Z,2.74
2023-11-23T00:45:08.976Z,2.71
2023-11-23T00:47:37.205Z,2.66
2023-11-23T00:50:06.522Z,2.70
2023-11-23T00:52:34.548Z,2.86
2023-11-23T00:55:05.878Z,2.98
2023-11-23T00:57:35.749Z,2.95
2023-11-23T01:00:06.471Z,2.89
2023-11-23T01:02:34.755Z,2.91
2023-11-23T01:05:02.801Z,2.89
2023-11-23T01:07:31.092Z,2.84
2023-11-23T01:09:58.974Z,2.89
2023-11-23T01:12:28.280Z,2.88
2023-11-23T01:14:56.592Z,2.80
2023-11-23T01:17:24.500Z,2.96
2023-11-23T01:19:52.471Z,2.90
2023-11-23T01:22:20.660Z,2.84
2023-11-23T01:24:48.580Z,2.79
2023-11-23T01:27:16.529Z,2.76
2023-11-23T01:29:46.065Z,2.92
2023-11-23T01:32:14.283Z,2.99
2023-11-23T01:34:42.362Z,2.88
2023-11-23T01:37:10.557Z,2.91
2023-11-23T01:39:38.545Z,2.97
2023-11-23T01:42:06.837Z,2.98
2023-11-23T01:44:34.836Z,2.91
2023-11-23T01:47:05.820Z,2.91
2023-11-23T01:49:36.611Z,2.86
2023-11-23T01:52:05.456Z,2.80
2023-11-23T01:54:33.780Z,2.70
2023-11-23T01:57:02.190Z,2.69
2023-11-23T01:59:35.024Z,2.63
2023-11-23T02:02:06.135Z,2.51
2023-11-23T02:04:34.635Z,2.71
2023-11-23T02:07:02.683Z,2.73
2023-11-23T02:09:32.207Z,2.79
2023-11-23T02:12:02.603Z,2.82
2023-11-23T02:14:32.156Z,2.97
2023-11-23T02:17:00.468Z,3.01
2023-11-23T02:19:29.844Z,3.13
2023-11-23T02:21:57.748Z,3.14
2023-11-23T02:24:27.174Z,3.39
2023-11-23T02:26:58.553Z,3.27
2023-11-23T02:29:26.488Z,3.21
2023-11-23T02:31:55.899Z,3.32
2023-11-23T02:34:23.815Z,3.26
2023-11-23T02:36:51.727Z,3.38
2023-11-23T02:39:19.830Z,3.36
2023-11-23T02:41:50.191Z,3.39
2023-11-23T02:44:17.900Z,3.35
2023-11-23T02:46:46.092Z,3.22
2023-11-23T02:49:14.052Z,3.25
2023-11-23T02:51:41.943Z,3.36
2023-11-23T02:54:10.545Z,3.33
2023-11-23T02:56:38.508Z,3.29
2023-11-23T02:59:09.073Z,3.33
2023-11-23T03:01:37.321Z,3.24
2023-11-23T03:04:06.469Z,3.20
2023-11-23T03:06:34.452Z,3.19
2023-11-23T03:09:02.611Z,3.20
2023-11-23T03:11:30.717Z,3.18
2023-11-23T03:13:59.527Z,3.34
2023-11-23T03:16:29.195Z,3.37
2023-11-23T03:18:57.278Z,3.41
2023-11-23T03:21:25.489Z,3.37
2023-11-23T03:23:54.425Z,3.28
2023-11-23T03:26:22.392Z,3.30
2023-11-23T03:28:50.394Z,3.22
2023-11-23T03:31:18.748Z,3.26
2023-11-23T03:33:48.067Z,3.22
2023-11-23T03:36:16.108Z,3.18
2023-11-23T03:38:44.392Z,3.11
2023-11-23T03:41:12.558Z,2.87
2023-11-23T03:43:40.540Z,2.84
2023-11-23T03:46:09.109Z,2.89
2023-11-23T03:48:37.162Z,2.81
2023-11-23T03:51:07.505Z,2.72
2023-11-23T03:53:35.338Z,2.72
2023-11-23T03:56:03.536Z,2.65
2023-11-23T03:58:31.558Z,2.52
2023-11-23T04:01:01.188Z,2.50
2023-11-23T04:03:31.716Z,2.40
2023-11-23T04:06:00.403Z,2.43
2023-11-23T04:08:29.754Z,2.35
2023-11-23T04:10:57.627Z,2.26
2023-11-23T04:13:25.758Z,2.33
2023-11-23T04:15:53.964Z,2.33
2023-11-23T04:18:22.142Z,2.41
2023-11-23T04:20:50.488Z,2.48
2023-11-23T04:23:18.374Z,2.51
2023-11-23T04:25:47.633Z,2.35
2023-11-23T04:28:16.022Z,2.37
2023-11-23T04:30:43.968Z,2.33
2023-11-23T04:33:12.318Z,2.47
2023-11-23T04:35:40.640Z,2.50
2023-11-23T04:38:08.572Z,2.50
2023-11-23T04:40:37.049Z,2.46
2023-11-23T04:43:06.530Z,2.35
2023-11-23T04:45:34.466Z,2.21
2023-11-23T04:48:05.278Z,2.15
2023-11-23T04:50:34.408Z,2.23
2023-11-23T04:53:02.303Z,2.42
2023-11-23T04:55:30.609Z,2.30
2023-11-23T04:57:58.726Z,2.32
2023-11-23T05:00:28.248Z,2.45
2023-11-23T05:02:56.813Z,2.32
2023-11-23T05:05:25.100Z,2.37
2023-11-23T05:07:53.000Z,2.34
2023-11-23T05:10:21.799Z,2.39
2023-11-23T05:12:54.470Z,2.23
2023-11-23T05:15:22.730Z,2.23
2023-11-23T05:17:52.182Z,2.32
2023-11-23T05:20:21.566Z,2.27
2023-11-23T05:22:49.487Z,2.32
2023-11-23T05:25:17.525Z,2.30
2023-11-23T05:27:45.489Z,2.31
2023-11-23T05:30:14.124Z,2.08
2023-11-23T05:32:42.195Z,2.21
2023-11-23T05:35:11.905Z,2.07
2023-11-23T05:37:39.900Z,2.04
2023-11-23T05:40:10.275Z,2.08
2023-11-23T05:42:38.475Z,2.17
2023-11-23T05:45:07.054Z,2.21
2023-11-23T05:47:35.049Z,2.12
2023-11-23T05:50:04.285Z,2.12
2023-11-23T05:52:33.569Z,2.02
2023-11-23T05:55:01.558Z,2.17
2023-11-23T05:57:29.693Z,2.10
2023-11-23T05:59:57.580Z,2.15
2023-11-23T06:02:25.604Z,2.05
2023-11-23T06:04:53.688Z,2.04
2023-11-23T06:07:21.694Z,1.98
2023-11-23T06:09:52.230Z,1.90
2023-11-23T06:12:20.242Z,1.81
2023-11-23T06:14:48.203Z,1.67
2023-11-23T06:17:16.690Z,1.65
2023-11-23T06:19:44.934Z,1.63
2023-11-23T06:22:13.267Z,1.49
2023-11-23T06:24:41.341Z,1.47
2023-11-23T06:27:11.936Z,1.43
2023-11-23T06:29:39.926Z,1.27
2023-11-23T06:32:08.528Z,1.21
2023-11-23T06:34:39.731Z,1.16
2023-11-23T06:37:09.063Z,1.30
2023-11-23T06:39:38.294Z,1.32
2023-11-23T06:42:06.562Z,1.63
2023-11-23T06:44:36.731Z,1.65
2023-11-23T06:47:05.290Z,1.66
2023-11-23T06:49:33.964Z,1.61
2023-11-23T06:52:01.875Z,1.54
2023-11-23T06:54:30.158Z,1.34
2023-11-23T06:56:58.923Z,1.55
2023-11-23T06:59:26.906Z,1.52
2023-11-23T07:01:57.594Z,1.87
2023-11-23T07:04:25.864Z,1.81
2023-11-23T07:06:53.792Z,1.81
2023-11-23T07:09:22.682Z,1.80
2023-11-23T07:11:55.270Z,1.84
2023-11-23T07:14:23.883Z,1.95
2023-11-23T07:16:53.165Z,1.79
2023-11-23T07:19:23.652Z,1.82
2023-11-23T07:21:51.519Z,1.85
2023-11-23T07:24:21.028Z,1.85
2023-11-23T07:26:50.222Z,1.72
2023-11-23T07:29:18.325Z,1.78
2023-11-23T07:31:47.708Z,1.95
2023-11-23T07:34:15.687Z,1.88
2023-11-23T07:36:45.090Z,1.90
2023-11-23T07:39:13.195Z,1.81
2023-11-23T07:41:41.576Z,2.05
2023-11-23T07:44:09.637Z,2.12
2023-11-23T07:46:37.811Z,2.31
2023-11-23T07:49:07.849Z,2.35
2023-11-23T07:51:38.869Z,2.43
2023-11-23T07:54:09.204Z,2.50
2023-11-23T07:56:37.020Z,2.48
2023-11-23T07:59:05.115Z,2.39
2023-11-23T08:01:33.189Z,2.32
2023-11-23T08:04:01.641Z,2.39
2023-11-23T08:06:29.721Z,2.33
2023-11-23T08:08:57.775Z,2.37
2023-11-23T08:11:27.251Z,2.40
2023-11-23T08:13:56.572Z,2.30
2023-11-23T08:16:24.501Z,2.19
2023-11-23T08:18:52.659Z,2.15
2023-11-23T08:21:20.711Z,2.12
2023-11-23T08:23:48.602Z,2.17
2023-11-23T08:26:17.100Z,2.18
2023-11-23T08:28:46.556Z,2.14
2023-11-23T08:31:14.541Z,2.10
2023-11-23T08:33:42.588Z,2.21
2023-11-23T08:36:11.271Z,2.27
2023-11-23T08:38:39.397Z,2.35
2023-11-23T08:41:07.831Z,2.40
2023-11-23T08:43:38.515Z,2.59
2023-11-23T08:46:08.840Z,2.80
2023-11-23T08:48:36.670Z,2.90
2023-11-23T08:51:05.168Z,3.02
2023-11-23T08:53:33.775Z,3.02
2023-11-23T08:56:04.218Z,2.95
2023-11-23T08:58:32.172Z,2.97
2023-11-23T09:01:00.790Z,3.09
2023-11-23T09:03:30.861Z,3.09
2023-11-23T09:05:59.665Z,3.07
2023-11-23T09:08:27.966Z,3.15
2023-11-23T09:10:56.994Z,3.18
2023-11-23T09:13:27.050Z,3.20
2023-11-23T09:15:55.805Z,3.27
2023-11-23T09:18:24.422Z,3.27
2023-11-23T09:20:54.014Z,3.33
2023-11-23T09:23:21.973Z,3.22
2023-11-23T09:25:50.104Z,3.36
2023-11-23T09:28:18.257Z,3.43
2023-11-23T09:30:46.184Z,3.47
2023-11-23T09:33:16.423Z,3.42
2023-11-23T09:35:44.488Z,3.52
2023-11-23T09:38:13.806Z,3.58
2023-11-23T09:40:42.710Z,3.47
2023-11-23T09:43:10.921Z,3.65
2023-11-23T09:45:39.811Z,3.78
2023-11-23T09:48:12.618Z,3.89
2023-11-23T09:50:42.668Z,3.93
2023-11-23T09:53:14.884Z,4.01
2023-11-23T09:55:44.810Z,3.83
2023-11-23T09:58:14.845Z,3.79
2023-11-23T10:00:43.088Z,3.87
2023-11-23T10:03:15.205Z,3.89
2023-11-23T10:05:44.869Z,3.87
2023-11-23T10:08:15.066Z,4.05
2023-11-23T10:10:42.057Z,4.01
2023-11-23T10:13:10.797Z,4.09
2023-11-23T10:15:39.063Z,4.09
2023-11-23T10:18:08.502Z,4.17
2023-11-23T10:20:39.977Z,4.19
2023-11-23T10:23:10.239Z,4.24
2023-11-23T10:25:42.903Z,4.27
2023-11-23T10:28:11.728Z,4.30
2023-11-23T10:30:40.663Z,4.26
2023-11-23T10:33:13.106Z,4.32
2023-11-23T10:35:43.920Z,4.43
2023-11-23T10:38:15.130Z,4.52
2023-11-23T10:40:46.883Z,4.50
2023-11-23T10:43:18.698Z,4.64
2023-11-23T10:45:49.719Z,4.74
2023-11-23T10:48:18.822Z,4.78
2023-11-23T10:50:47.388Z,4.73
2023-11-23T10:53:17.938Z,4.78
2023-11-23T10:55:51.001Z,4.83
2023-11-23T10:58:20.860Z,4.87
2023-11-23T11:00:49.597Z,4.79
2023-11-23T11:03:25.261Z,4.81
2023-11-23T11:05:54.680Z,4.76
2023-11-23T11:08:28.197Z,4.85
2023-11-23T11:10:58.886Z,4.80
2023-11-23T11:13:27.725Z,4.80
2023-11-23T11:15:58.846Z,4.74
2023-11-23T11:18:28.249Z,4.82
2023-11-23T11:21:13.259Z,4.77
2023-11-23T11:23:43.166Z,4.68
2023-11-23T11:26:14.338Z,4.70
2023-11-23T11:28:43.481Z,4.65
2023-11-23T11:31:14.937Z,4.64
2023-11-23T11:33:43.307Z,4.55
2023-11-23T11:36:14.100Z,4.50
2023-11-23T11:38:43.189Z,4.45
2023-11-23T11:41:12.841Z,4.52
2023-11-23T11:43:43.121Z,4.43
2023-11-23T11:46:11.270Z,4.57
2023-11-23T11:48:39.384Z,4.52
2023-11-23T11:51:10.552Z,4.45
2023-11-23T11:53:38.761Z,4.55
2023-11-23T11:56:07.912Z,4.41
2023-11-23T11:58:37.336Z,4.37
2023-11-23T12:01:06.096Z,4.33
2023-11-23T12:03:34.180Z,4.25
2023-11-23T12:06:04.988Z,4.36
2023-11-23T12:08:36.504Z,4.35
2023-11-23T12:11:06.930Z,4.31
2023-11-23T12:13:36.192Z,4.26
2023-11-23T12:16:08.604Z,4.25
2023-11-23T12:18:37.945Z,4.20
2023-11-23T12:21:13.677Z,4.08
2023-11-23T12:23:43.161Z,4.14
2023-11-23T12:26:11.941Z,4.15
2023-11-23T12:28:40.291Z,4.00
2023-11-23T12:31:09.934Z,3.96
2023-11-23T12:33:39.005Z,4.05
2023-11-23T12:36:08.058Z,4.06
2023-11-23T12:38:35.989Z,4.08
2023-11-23T12:41:04.447Z,4.08
2023-11-23T12:43:32.420Z,4.08
2023-11-23T12:46:00.518Z,4.02
2023-11-23T12:48:30.123Z,4.02
2023-11-23T12:51:00.028Z,3.97
2023-11-23T12:53:30.520Z,3.90
2023-11-23T12:55:59.089Z,3.96
2023-11-23T12:58:27.079Z,4.00
2023-11-23T13:00:55.087Z,3.95
2023-11-23T13:03:24.837Z,3.85
2023-11-23T13:05:55.704Z,3.93
2023-11-23T13:08:24.997Z,4.02
2023-11-23T13:10:52.892Z,4.01
2023-11-23T13:13:20.994Z,3.94
2023-11-23T13:15:49.112Z,3.94
2023-11-23T13:18:17.428Z,3.90
2023-11-23T13:20:46.472Z,3.95
2023-11-23T13:23:16.300Z,3.84
2023-11-23T13:25:46.243Z,3.68
2023-11-23T13:28:14.991Z,3.66
2023-11-23T13:30:44.206Z,3.48
2023-11-23T13:33:17.026Z,3.49
2023-11-23T13:35:45.408Z,3.35
2023-11-23T13:38:13.352Z,3.34
2023-11-23T13:40:43.255Z,3.28
2023-11-23T13:43:12.175Z,3.09
2023-11-23T13:45:40.516Z,3.15
2023-11-23T13:48:09.608Z,3.09
2023-11-23T13:50:43.235Z,3.07
2023-11-23T13:53:12.432Z,3.02
2023-11-23T13:55:41.368Z,3.20
2023-11-23T13:58:10.904Z,2.97
2023-11-23T14:00:39.123Z,3.11
2023-11-23T14:03:07.616Z,3.09
2023-11-23T14:05:35.536Z,3.11
2023-11-23T14:08:05.676Z,3.08
2023-11-23T14:10:33.941Z,2.96
2023-11-23T14:13:01.909Z,3.07
2023-11-23T14:15:31.566Z,2.97
2023-11-23T14:18:00.948Z,3.12
2023-11-23T14:20:28.998Z,3.14
2023-11-23T14:22:56.983Z,3.11
2023-11-23T14:25:25.007Z,3.05
2023-11-23T14:27:56.693Z,3.12
2023-11-23T14:30:24.866Z,3.05
2023-11-23T14:32:54.335Z,3.10
2023-11-23T14:35:22.904Z,3.10
2023-11-23T14:37:51.859Z,3.12
2023-11-23T14:40:20.457Z,3.06
2023-11-23T14:42:56.353Z,3.06
2023-11-23T14:45:28.433Z,3.00
2023-11-23T14:47:59.846Z,2.93
2023-11-23T14:50:30.458Z,2.95
2023-11-23T14:52:59.783Z,2.88
2023-11-23T14:55:28.149Z,2.68
2023-11-23T14:57:57.969Z,2.65
2023-11-23T15:00:26.215Z,2.68
2023-11-23T15:02:54.919Z,2.62
2023-11-23T15:05:24.645Z,2.63
2023-11-23T15:07:53.814Z,2.72
2023-11-23T15:10:22.119Z,2.71
2023-11-23T15:12:53.232Z,2.68
2023-11-23T15:15:22.372Z,2.53
2023-11-23T15:17:54.226Z,2.58
2023-11-23T15:20:22.201Z,2.47
2023-11-23T15:22:52.559Z,2.42
2023-11-23T15:25:20.447Z,2.44
2023-11-23T15:27:49.457Z,2.38
2023-11-23T15:30:17.714Z,2.35
2023-11-23T15:32:46.981Z,2.22
2023-11-23T15:35:15.648Z,2.38
2023-11-23T15:37:44.163Z,2.38
2023-11-23T15:40:18.088Z,2.26
2023-11-23T15:42:47.688Z,2.24
2023-11-23T15:45:15.929Z,2.28
2023-11-23T15:47:44.314Z,2.16
2023-11-23T15:50:12.950Z,2.18
2023-11-23T15:52:42.036Z,2.13
2023-11-23T15:55:12.848Z,2.22
2023-11-23T15:57:43.503Z,2.21
2023-11-23T16:00:13.704Z,2.23
2023-11-23T16:02:44.474Z,2.27
2023-11-23T16:05:14.092Z,2.25
2023-11-23T16:07:42.064Z,2.16
2023-11-23T16:10:10.805Z,2.19
2023-11-23T16:12:38.971Z,2.24
2023-11-23T16:15:11.860Z,2.22
2023-11-23T16:17:40.520Z,2.22
2023-11-23T16:20:12.012Z,2.35
2023-11-23T16:22:39.916Z,2.32
2023-11-23T16:25:08.850Z,2.27
2023-11-23T16:27:36.862Z,2.27
2023-11-23T16:30:05.964Z,2.32
2023-11-23T16:32:35.371Z,2.29
2023-11-23T16:35:04.573Z,2.22
2023-11-23T16:37:32.501Z,2.16
2023-11-23T16:40:00.380Z,2.21
2023-11-23T16:42:28.421Z,2.18
2023-11-23T16:44:56.376Z,2.06
2023-11-23T16:47:24.819Z,2.07
2023-11-23T16:49:56.036Z,2.11
2023-11-23T16:52:24.049Z,2.17
2023-11-23T16:54:52.206Z,1.95
2023-11-23T16:57:20.392Z,1.89
2023-11-23T16:59:48.775Z,1.86
2023-11-23T17:02:16.938Z,1.89
2023-11-23T17:04:50.356Z,1.83
2023-11-23T17:07:21.209Z,1.78
2023-11-23T17:09:49.211Z,1.64
2023-11-23T17:12:19.726Z,1.70
2023-11-23T17:14:47.905Z,1.54
2023-11-23T17:17:15.922Z,1.61
2023-11-23T17:19:43.997Z,1.66
2023-11-23T17:22:12.089Z,1.57
2023-11-23T17:24:42.672Z,1.67
2023-11-23T17:27:11.132Z,1.48
2023-11-23T17:29:39.477Z,1.61
2023-11-23T17:32:09.072Z,1.44
2023-11-23T17:34:37.139Z,1.41
2023-11-23T17:37:05.729Z,1.50
2023-11-23T17:39:34.050Z,1.42
2023-11-23T17:42:03.403Z,1.43
2023-11-23T17:44:31.365Z,1.25
2023-11-23T17:46:59.310Z,1.25
2023-11-23T17:49:27.711Z,1.25
2023-11-23T17:51:58.199Z,1.18
2023-11-23T17:54:29.751Z,1.37
2023-11-23T17:56:58.152Z,1.42
2023-11-23T17:59:43.341Z,1.23
2023-11-23T18:02:19.536Z,1.10
2023-11-23T18:04:52.869Z,1.24
2023-11-23T18:07:23.679Z,1.27
2023-11-23T18:09:52.228Z,1.13
2023-11-23T18:12:20.417Z,1.26
2023-11-23T18:14:49.835Z,1.23
2023-11-23T18:17:17.766Z,1.13
2023-11-23T18:19:46.041Z,1.07
2023-11-23T18:22:14.017Z,1.00
2023-11-23T18:24:41.977Z,0.92
2023-11-23T18:27:12.705Z,0.97
2023-11-23T18:29:40.807Z,0.89
2023-11-23T18:32:15.149Z,0.92
2023-11-23T18:34:43.403Z,0.94
2023-11-23T18:37:13.270Z,0.91
2023-11-23T18:39:42.345Z,0.91
2023-11-23T18:42:12.738Z,0.89
2023-11-23T18:44:41.890Z,0.81
2023-11-23T18:47:11.482Z,0.91
2023-11-23T18:49:39.424Z,0.67
2023-11-23T18:52:11.962Z,0.68
2023-11-23T18:54:40.110Z,0.72
2023-11-23T18:57:08.003Z,0.76
2023-11-23T18:59:36.063Z,0.70
2023-11-23T19:02:06.432Z,0.65
2023-11-23T19:04:35.888Z,0.66
2023-11-23T19:07:05.045Z,0.55
2023-11-23T19:09:33.757Z,0.61
2023-11-23T19:12:01.668Z,0.51
2023-11-23T19:14:32.373Z,0.55
2023-11-23T19:17:00.433Z,0.51
2023-11-23T19:19:28.879Z,0.47
2023-11-23T19:21:58.786Z,0.45
2023-11-23T19:24:27.754Z,0.39
2023-11-23T19:26:56.223Z,0.31
2023-11-23T19:29:35.195Z,0.20
2023-11-23T19:32:11.887Z,0.39
2023-11-23T19:34:40.379Z,0.45
2023-11-23T19:37:11.008Z,0.42
2023-11-23T19:39:39.527Z,0.38
2023-11-23T19:42:08.944Z,0.29
2023-11-23T19:44:37.451Z,0.29
2023-11-23T19:47:06.051Z,0.30
2023-11-23T19:49:34.582Z,0.21
2023-11-23T19:52:08.150Z,0.31
2023-11-23T19:54:37.548Z,0.36
2023-11-23T19:57:07.418Z,0.34
2023-11-23T19:59:36.029Z,0.31
2023-11-23T20:02:04.333Z,0.33
2023-11-23T20:04:34.230Z,0.21
2023-11-23T20:07:04.541Z,0.18
2023-11-23T20:09:32.664Z,0.21
2023-11-23T20:12:02.237Z,0.23
2023-11-23T20:14:30.249Z,0.09
2023-11-23T20:16:58.698Z,0.13
2023-11-23T20:19:26.734Z,0.05
2023-11-23T20:21:54.835Z,0.10
2023-11-23T20:24:25.023Z,0.03
2023-11-23T20:26:53.392Z,0.04
2023-11-23T20:29:23.896Z,-0.09
2023-11-23T20:31:52.300Z,-0.13
2023-11-23T20:34:20.846Z,-0.15
2023-11-23T20:36:49.056Z,-0.13
2023-11-23T20:39:17.623Z,-0.06
2023-11-23T20:41:46.827Z,-0.12
2023-11-23T20:44:14.928Z,-0.13
2023-11-23T20:46:45.343Z,-0.14
2023-11-23T20:49:13.354Z,-0.15
2023-11-23T20:51:41.409Z,-0.14
2023-11-23T20:54:09.425Z,-0.20
2023-11-23T20:56:37.822Z,-0.33
2023-11-23T20:59:06.622Z,-0.24
2023-11-23T21:01:35.234Z,-0.17
2023-11-23T21:04:05.530Z,-0.30
2023-11-23T21:06:33.897Z,-0.22
2023-11-23T21:09:03.756Z,-0.24
2023-11-23T21:11:31.809Z,-0.28
2023-11-23T21:13:59.810Z,-0.28
2023-11-23T21:16:28.162Z,-0.33
2023-11-23T21:18:56.337Z,-0.39
2023-11-23T21:21:25.777Z,-0.41
2023-11-23T21:23:53.701Z,-0.36
2023-11-23T21:26:21.659Z,-0.36
2023-11-23T21:28:49.993Z,-0.36
2023-11-23T21:31:19.111Z,-0.41
2023-11-23T21:33:47.092Z,-0.47
2023-11-23T21:36:15.760Z,-0.36
2023-11-23T21:38:45.199Z,-0.39
2023-11-23T21:41:16.120Z,-0.28
2023-11-23T21:43:44.391Z,-0.32
2023-11-23T21:46:12.894Z,-0.30
2023-11-23T21:48:41.456Z,-0.25
2023-11-23T21:51:09.502Z,-0.25
2023-11-23T21:53:37.477Z,-0.27
2023-11-23T21:56:07.501Z,-0.07
2023-11-23T21:58:35.794Z,-0.12
2023-11-23T22:01:03.860Z,-0.04
2023-11-23T22:03:31.994Z,-0.04
2023-11-23T22:06:00.098Z,-0.05
2023-11-23T22:08:28.061Z,-0.05
2023-11-23T22:10:56.770Z,0.00
2023-11-23T22:13:26.426Z,-0.02
2023-11-23T22:15:54.522Z,-0.07
2023-11-23T22:18:23.606Z,-0.03
2023-11-23T22:20:51.978Z,-0.06
2023-11-23T22:23:20.471Z,0.00
2023-11-23T22:25:49.017Z,-0.01
2023-11-23T22:28:17.607Z,0.01
2023-11-23T22:30:47.629Z,0.01
2023-11-23T22:33:15.963Z,-0.03
2023-11-23T22:35:44.895Z,-0.02
2023-11-23T22:38:15.848Z,0.01
2023-11-23T22:40:45.098Z,-0.01
2023-11-23T22:43:17.714Z,0.02
2023-11-23T22:45:48.483Z,0.00
2023-11-23T22:48:16.415Z,0.07
2023-11-23T22:50:45.517Z,0.05
2023-11-23T22:53:13.897Z,-0.07
2023-11-23T22:55:41.862Z,-0.02
2023-11-23T22:58:09.807Z,-0.01
2023-11-23T23:00:38.275Z,-0.08
2023-11-23T23:03:07.778Z,0.07
2023-11-23T23:05:36.290Z,-0.09
2023-11-23T23:08:05.128Z,0.06
2023-11-23T23:10:34.467Z,0.05
2023-11-23T23:13:04.307Z,-0.08
2023-11-23T23:15:32.576Z,0.02
2023-11-23T23:18:00.810Z,0.00
2023-11-23T23:20:30.592Z,-0.02
2023-11-23T23:22:58.857Z,0.03
2023-11-23T23:25:26.776Z,-0.07
2023-11-23T23:27:54.873Z,-0.09
2023-11-23T23:30:22.920Z,0.02
2023-11-23T23:32:54.353Z,-0.09
2023-11-23T23:35:22.385Z,-0.01
2023-11-23T23:37:51.806Z,-0.03
2023-11-23T23:40:19.832Z,-0.04
2023-11-23T23:42:47.840Z,-0.01
2023-11-23T23:45:15.996Z,-0.03
2023-11-23T23:47:46.087Z,-0.16
2023-11-23T23:50:14.228Z,-0.02
2023-11-23T23:52:42.384Z,-0.06
2023-11-23T23:55:11.756Z,-0.14
2023-11-23T23:57:39.820Z,-0.13
